Time;durP1;ratioP1;P1;durP2;ratioP2;P2;SDS_P1;SDS_P2;PMS_P1;PMS_P2;Temp;Humidity;BMP_temperature;BMP_pressure;BME280_temperature;BME280_humidity;BME280_pressure;Samples;Min_cycle;Max_cycle;Signal;HPM_P1;HPM_P2
2021/04/26 00:02:09;;;;;;;0.75;0.50;;;;;;;1.57;73.34;101530.41;5115722;29;20031;-77
2021/04/26 00:04:39;;;;;;;2.05;0.70;;;;;;;1.85;73.57;101525.69;5114520;28;20102;-77
2021/04/26 00:07:10;;;;;;;1.70;0.80;;;;;;;1.83;73.07;101513.63;5107844;29;20122;-77
2021/04/26 00:09:40;;;;;;;1.67;0.80;;;;;;;1.82;73.02;101522.22;5115201;29;20533;-77
2021/04/26 00:12:10;;;;;;;3.22;0.77;;;;;;;1.84;72.76;101520.53;5111752;29;20035;-77
2021/04/26 00:14:41;;;;;;;3.75;0.82;;;;;;;1.78;73.54;101520.41;5114195;29;20115;-77
2021/04/26 00:17:11;;;;;;;1.70;0.63;;;;;;;1.71;73.46;101523.75;5119455;28;20417;-77
2021/04/26 00:19:42;;;;;;;2.85;0.90;;;;;;;1.81;72.41;101525.63;5131493;28;20037;-77
2021/04/26 00:22:12;;;;;;;1.60;0.77;;;;;;;1.67;72.79;101521.97;5113655;29;20038;-77
2021/04/26 00:24:42;;;;;;;1.92;0.50;;;;;;;1.85;72.54;101517.94;5127320;28;20386;-77
2021/04/26 00:27:13;;;;;;;1.70;0.73;;;;;;;1.79;72.83;101522.19;5122289;28;20378;-77
2021/04/26 00:29:43;;;;;;;1.13;0.60;;;;;;;1.98;71.85;101521.59;5096744;29;20047;-77
2021/04/26 00:32:13;;;;;;;2.72;0.80;;;;;;;1.82;73.04;101512.75;5112091;29;20023;-77
2021/04/26 00:34:44;;;;;;;3.15;0.85;;;;;;;1.60;73.10;101512.41;5115188;29;20031;-77
2021/04/26 00:37:14;;;;;;;1.00;0.57;;;;;;;1.85;72.67;101511.94;5119822;28;20058;-77
2021/04/26 00:39:44;;;;;;;2.25;0.60;;;;;;;1.57;73.46;101509.78;5115779;28;20391;-77
2021/04/26 00:42:15;;;;;;;2.28;0.60;;;;;;;1.59;73.96;101510.69;5116247;28;20031;-77
2021/04/26 00:44:45;;;;;;;2.85;0.85;;;;;;;1.63;73.68;101507.34;5122961;28;20417;-77
2021/04/26 00:47:15;;;;;;;2.33;0.80;;;;;;;1.54;74.22;101508.91;5115779;28;20019;-77
2021/04/26 00:49:46;;;;;;;3.25;0.70;;;;;;;1.53;73.64;101505.44;5133503;28;20058;-77
2021/04/26 00:52:16;;;;;;;1.77;0.70;;;;;;;1.61;72.96;101506.41;5117430;28;20050;-77
2021/04/26 00:54:47;;;;;;;1.50;0.80;;;;;;;1.55;72.68;101502.91;5117640;28;20062;-77
2021/04/26 00:57:17;;;;;;;1.80;0.70;;;;;;;1.59;72.22;101502.94;5112664;28;20027;-77
2021/04/26 00:59:47;;;;;;;2.30;0.80;;;;;;;1.56;72.85;101502.06;5109937;29;20027;-77
2021/04/26 01:02:18;;;;;;;1.98;0.80;;;;;;;1.60;72.72;101499.53;5114680;28;20494;-77
2021/04/26 01:04:48;;;;;;;1.52;0.70;;;;;;;1.63;72.27;101504.75;5110948;28;21312;-77
2021/04/26 01:07:19;;;;;;;1.95;0.90;;;;;;;1.68;72.29;101503.09;5105865;28;20039;-76
2021/04/26 01:09:49;;;;;;;3.75;0.98;;;;;;;1.67;72.36;101514.25;5106926;29;20031;-77
2021/04/26 01:12:43;;;;;;;2.78;0.93;;;;;;;1.68;72.77;101512.53;5111171;29;20118;-77
2021/04/26 01:15:39;;;;;;;2.08;0.80;;;;;;;1.66;71.81;101503.91;5105275;29;20073;-77
2021/04/26 01:18:16;;;;;;;1.13;0.70;;;;;;;1.44;73.64;101505.28;5112566;29;20077;-77
2021/04/26 01:21:05;;;;;;;2.05;0.80;;;;;;;1.43;73.89;101505.28;5110382;29;20343;-77
2021/04/26 01:24:07;;;;;;;1.58;0.80;;;;;;;1.36;73.57;101503.44;5113680;28;20027;-76
2021/04/26 01:27:02;;;;;;;3.55;0.70;;;;;;;1.46;73.54;101511.34;5124228;28;20082;-77
2021/04/26 01:30:02;;;;;;;2.75;0.90;;;;;;;1.38;73.65;101502.63;5110838;29;20030;-76
2021/04/26 01:32:40;;;;;;;3.53;0.90;;;;;;;1.37;74.37;101508.63;5108921;29;20028;-76
2021/04/26 01:35:13;;;;;;;2.35;1.00;;;;;;;1.34;75.29;101500.84;5122205;28;20035;-76
2021/04/26 01:37:47;;;;;;;2.67;0.82;;;;;;;1.26;74.63;101507.56;5113944;28;20023;-77
2021/04/26 01:40:20;;;;;;;1.58;0.80;;;;;;;1.24;75.72;101509.25;5116490;28;20031;-76
2021/04/26 01:42:56;;;;;;;1.17;0.70;;;;;;;1.21;75.92;101504.06;5111081;29;20036;-76
2021/04/26 01:45:27;;;;;;;2.30;0.68;;;;;;;1.10;77.57;101510.72;5111769;28;20032;-77
2021/04/26 01:47:59;;;;;;;1.77;0.90;;;;;;;1.10;77.43;101505.56;5113398;28;20090;-77
2021/04/26 01:50:29;;;;;;;2.30;0.80;;;;;;;1.23;77.39;101507.53;5112648;28;20087;-76
2021/04/26 01:53:00;;;;;;;1.75;0.80;;;;;;;0.94;77.50;101508.75;5116289;28;20023;-76
2021/04/26 01:55:31;;;;;;;3.05;0.90;;;;;;;0.95;77.86;101510.47;5124926;28;20119;-77
2021/04/26 01:58:02;;;;;;;3.35;0.82;;;;;;;0.98;77.15;101510.53;5109564;28;20074;-77
2021/04/26 02:00:34;;;;;;;1.90;0.70;;;;;;;0.68;77.76;101507.38;5112680;29;20561;-77
2021/04/26 02:03:05;;;;;;;1.77;0.70;;;;;;;0.68;78.60;101509.06;5111518;28;20050;-77
2021/04/26 02:05:37;;;;;;;4.20;0.80;;;;;;;0.64;78.67;101508.19;5094387;29;20031;-77
2021/04/26 02:08:07;;;;;;;1.85;0.70;;;;;;;0.78;77.83;101504.16;5114263;29;20087;-77
2021/04/26 02:10:38;;;;;;;2.75;0.90;;;;;;;0.63;78.66;101506.44;5107585;29;20061;-77
2021/04/26 02:13:09;;;;;;;1.77;0.70;;;;;;;0.85;77.80;101506.00;5112280;28;20024;-77
2021/04/26 02:15:41;;;;;;;4.68;0.90;;;;;;;0.64;78.80;101502.16;5110430;28;20034;-77
2021/04/26 02:18:11;;;;;;;2.13;0.90;;;;;;;0.70;79.44;101503.13;5112947;29;20118;-77
2021/04/26 02:20:42;;;;;;;2.30;0.77;;;;;;;0.65;79.31;101494.47;5108750;29;20119;-77
2021/04/26 02:23:13;;;;;;;2.08;0.80;;;;;;;0.58;79.67;101495.19;5113765;28;20050;-77
2021/04/26 02:25:44;;;;;;;5.53;0.82;;;;;;;0.61;79.48;101491.81;5117549;28;20031;-77
2021/04/26 02:28:14;;;;;;;1.50;0.70;;;;;;;0.62;79.15;101498.69;5111261;28;20031;-77
2021/04/26 02:30:45;;;;;;;1.88;0.70;;;;;;;0.75;78.13;101496.38;5109919;28;20053;-77
2021/04/26 02:33:19;;;;;;;1.85;0.90;;;;;;;0.74;78.60;101491.22;5112139;28;20039;-77
2021/04/26 02:36:00;;;;;;;3.22;0.90;;;;;;;0.57;79.58;101490.88;5106312;29;20030;-77
2021/04/26 02:38:36;;;;;;;2.60;0.93;;;;;;;0.53;79.18;101488.25;5120382;28;20026;-77
2021/04/26 02:41:13;;;;;;;1.63;0.73;;;;;;;0.57;79.34;101485.72;5108790;29;20032;-77
2021/04/26 02:43:46;;;;;;;1.63;0.80;;;;;;;0.44;79.72;101483.78;5110635;29;20060;-77
2021/04/26 02:46:21;;;;;;;1.75;0.68;;;;;;;0.51;78.85;101474.47;5108853;29;20036;-77
2021/04/26 02:48:52;;;;;;;2.08;0.93;;;;;;;0.39;79.81;101481.97;5097322;29;20540;-77
2021/04/26 02:51:23;;;;;;;1.65;0.80;;;;;;;0.29;80.67;101477.47;5110803;28;20044;-77
2021/04/26 02:53:54;;;;;;;1.45;0.75;;;;;;;0.77;78.22;101478.41;5114021;28;20023;-77
2021/04/26 02:56:24;;;;;;;2.30;0.90;;;;;;;0.86;77.98;101469.13;5124245;28;20020;-77
2021/04/26 02:58:56;;;;;;;2.28;0.90;;;;;;;0.66;77.96;101459.31;5108972;29;20039;-77
2021/04/26 03:01:26;;;;;;;3.67;0.90;;;;;;;0.42;79.90;101474.31;5112921;29;20111;-77
2021/04/26 03:03:57;;;;;;;2.60;0.77;;;;;;;0.24;79.83;101476.50;5107891;29;20550;-78
2021/04/26 03:06:27;;;;;;;2.33;0.70;;;;;;;0.40;79.83;101466.56;5109539;28;20031;-77
2021/04/26 03:08:59;;;;;;;2.40;0.95;;;;;;;0.46;79.24;101466.69;5114233;28;20494;-77
2021/04/26 03:11:30;;;;;;;1.38;0.70;;;;;;;0.10;80.07;101475.38;5091446;29;20036;-78
2021/04/26 03:14:01;;;;;;;3.13;0.85;;;;;;;0.19;81.35;101471.28;5116116;29;20038;-77
2021/04/26 03:16:31;;;;;;;4.38;1.02;;;;;;;0.50;78.74;101473.63;5113008;29;20437;-75
2021/04/26 03:19:04;;;;;;;1.88;0.90;;;;;;;0.33;79.18;101466.41;5132873;28;20039;-77
2021/04/26 03:21:35;;;;;;;1.63;0.70;;;;;;;0.32;79.89;101457.84;5118012;28;20027;-76
2021/04/26 03:24:06;;;;;;;3.05;0.73;;;;;;;-0.03;81.63;101463.97;5124342;28;20034;-76
2021/04/26 03:26:37;;;;;;;1.52;0.73;;;;;;;-0.35;82.74;101463.25;5121860;29;20023;-77
2021/04/26 03:29:09;;;;;;;1.60;0.75;;;;;;;-0.21;83.08;101456.72;5113532;29;20039;-76
2021/04/26 03:31:39;;;;;;;2.45;0.75;;;;;;;-0.13;81.84;101448.34;5115529;28;20034;-77
2021/04/26 03:34:10;;;;;;;4.13;0.90;;;;;;;-0.29;82.77;101446.28;5115554;28;20035;-76
2021/04/26 03:36:41;;;;;;;3.45;0.95;;;;;;;-0.29;82.94;101451.41;5119676;28;20066;-76
2021/04/26 03:39:14;;;;;;;3.47;0.90;;;;;;;0.05;81.88;101447.00;5113189;29;20050;-77
2021/04/26 03:41:44;;;;;;;2.35;0.90;;;;;;;0.23;79.24;101446.50;5114173;29;20035;-76
2021/04/26 03:44:17;;;;;;;2.28;0.95;;;;;;;0.25;79.12;101443.13;5113646;29;20028;-76
2021/04/26 03:46:59;;;;;;;2.17;0.90;;;;;;;0.51;78.67;101447.06;5114680;28;20031;-77
2021/04/26 03:49:30;;;;;;;2.45;1.08;;;;;;;0.37;79.07;101440.78;5125058;28;20020;-76
2021/04/26 03:52:00;;;;;;;3.88;1.20;;;;;;;0.35;79.66;101442.47;5115565;28;20648;-77
2021/04/26 03:54:31;;;;;;;2.72;1.10;;;;;;;0.23;80.67;101436.25;5117240;28;20070;-76
2021/04/26 03:57:02;;;;;;;1.80;0.90;;;;;;;0.17;80.67;101436.09;5124808;28;20030;-76
2021/04/26 03:59:32;;;;;;;4.70;1.30;;;;;;;0.18;80.64;101433.56;5117791;28;20027;-76
2021/04/26 04:02:03;;;;;;;2.20;1.10;;;;;;;0.15;80.72;101436.09;5111053;28;20037;-75
2021/04/26 04:04:35;;;;;;;4.65;1.20;;;;;;;-0.12;82.92;101436.34;5114734;29;20043;-76
2021/04/26 04:07:05;;;;;;;3.08;1.20;;;;;;;0.01;82.31;101428.94;5112199;29;20046;-76
2021/04/26 04:09:35;;;;;;;2.00;0.90;;;;;;;0.06;80.65;101435.88;5114801;28;20035;-75
2021/04/26 04:12:06;;;;;;;4.45;1.20;;;;;;;-0.55;82.61;101444.81;5113576;28;20072;-75
2021/04/26 04:14:36;;;;;;;8.98;1.23;;;;;;;-0.25;82.79;101444.66;5119630;28;20405;-75
2021/04/26 04:17:06;;;;;;;5.68;1.13;;;;;;;-0.04;79.82;101440.81;5111762;29;20035;-75
2021/04/26 04:19:37;;;;;;;1.75;0.90;;;;;;;0.07;78.63;101444.47;5114534;28;20070;-78
2021/04/26 04:22:07;;;;;;;1.73;0.90;;;;;;;0.10;78.87;101441.97;5110844;29;20034;-76
2021/04/26 04:24:37;;;;;;;3.90;1.10;;;;;;;0.14;79.49;101431.78;5121221;28;20110;-77
2021/04/26 04:27:07;;;;;;;4.32;1.20;;;;;;;0.25;78.84;101434.56;5125320;28;20031;-77
2021/04/26 04:29:38;;;;;;;3.60;1.13;;;;;;;0.21;79.88;101431.06;5121325;28;20042;-77
2021/04/26 04:32:08;;;;;;;5.00;1.17;;;;;;;0.34;78.03;101430.47;5113222;28;20054;-77
2021/04/26 04:34:39;;;;;;;3.00;0.90;;;;;;;0.76;77.84;101436.38;5117903;28;20031;-76
2021/04/26 04:37:09;;;;;;;2.25;1.13;;;;;;;0.91;76.96;101426.34;5110812;29;20019;-76
2021/04/26 04:39:39;;;;;;;3.88;0.90;;;;;;;1.05;74.59;101424.84;5111563;29;20051;-76
2021/04/26 04:42:10;;;;;;;2.55;0.95;;;;;;;1.01;75.82;101430.81;5114784;28;20040;-76
2021/04/26 04:44:41;;;;;;;3.40;0.88;;;;;;;1.50;74.25;101422.13;5119265;28;20133;-77
2021/04/26 04:47:11;;;;;;;4.95;0.80;;;;;;;1.80;73.67;101423.41;5113624;28;20035;-77
2021/04/26 04:49:41;;;;;;;3.97;0.90;;;;;;;1.86;71.92;101423.47;5126543;28;20425;-78
2021/04/26 04:52:12;;;;;;;2.15;1.00;;;;;;;1.81;70.41;101423.41;5113749;28;20027;-78
2021/04/26 04:54:42;;;;;;;5.20;1.08;;;;;;;2.01;70.93;101421.09;5122447;28;20030;-77
2021/04/26 04:57:12;;;;;;;2.75;0.85;;;;;;;2.61;70.04;101432.97;5121177;28;20502;-77
2021/04/26 04:59:42;;;;;;;3.70;0.95;;;;;;;3.20;67.37;101426.59;5111972;29;20020;-77
2021/04/26 05:02:13;;;;;;;2.90;0.80;;;;;;;4.29;64.52;101422.03;5112670;28;20027;-77
2021/04/26 05:04:43;;;;;;;6.80;0.90;;;;;;;5.36;59.85;101419.56;5118298;28;20585;-77
2021/04/26 05:07:13;;;;;;;2.47;0.90;;;;;;;7.38;55.08;101415.03;5116946;28;20038;-77
2021/04/26 05:09:43;;;;;;;3.08;1.00;;;;;;;9.14;50.20;101401.47;5114154;28;20492;-78
2021/04/26 05:12:15;;;;;;;3.75;0.93;;;;;;;8.69;52.48;101405.69;5112728;28;20023;-79
2021/04/26 05:14:47;;;;;;;3.10;0.65;;;;;;;10.26;48.21;101402.84;5120327;28;20093;-79
2021/04/26 05:17:17;;;;;;;2.67;0.90;;;;;;;10.49;47.97;101403.22;5109212;28;20500;-79
2021/04/26 05:19:48;;;;;;;2.80;1.00;;;;;;;11.38;47.07;101395.81;5114016;28;20057;-79
2021/04/26 05:22:19;;;;;;;2.50;1.00;;;;;;;10.17;47.52;101393.44;5113268;29;20035;-79
2021/04/26 05:24:49;;;;;;;3.13;0.90;;;;;;;10.46;47.26;101400.66;5130909;28;20034;-79
2021/04/26 05:27:19;;;;;;;2.67;0.80;;;;;;;9.91;48.41;101403.53;5122362;28;20101;-79
2021/04/26 05:29:50;;;;;;;2.63;1.00;;;;;;;8.37;49.17;101411.34;5128928;28;20042;-79
2021/04/26 05:32:20;;;;;;;3.03;1.00;;;;;;;6.59;53.75;101407.03;5116583;28;20537;-79
2021/04/26 05:34:51;;;;;;;3.60;0.90;;;;;;;6.20;54.74;101402.91;5115875;28;20059;-79
2021/04/26 05:37:21;;;;;;;4.45;0.98;;;;;;;7.74;53.03;101399.06;5118440;28;20031;-79
2021/04/26 05:39:51;;;;;;;3.80;0.93;;;;;;;7.51;51.91;101397.63;5116225;28;20027;-79
2021/04/26 05:42:23;;;;;;;5.13;1.00;;;;;;;8.00;53.19;101390.97;5118865;28;20553;-78
2021/04/26 05:44:53;;;;;;;9.43;1.00;;;;;;;7.60;52.47;101394.91;5117412;28;20458;-78
2021/04/26 05:47:23;;;;;;;6.20;0.80;;;;;;;9.87;49.42;101390.56;5102712;29;20101;-78
2021/04/26 05:49:54;;;;;;;8.45;1.20;;;;;;;7.84;51.40;101400.69;5115442;28;20035;-78
2021/04/26 05:52:25;;;;;;;1.98;0.80;;;;;;;7.22;52.57;101397.84;5120381;28;20492;-78
2021/04/26 05:54:55;;;;;;;6.30;0.90;;;;;;;7.93;52.63;101392.81;5129405;28;20033;-78
2021/04/26 05:57:25;;;;;;;3.55;0.90;;;;;;;7.47;53.30;101391.56;5119855;28;20106;-78
2021/04/26 05:59:57;;;;;;;2.10;0.80;;;;;;;5.19;58.33;101400.56;5113544;28;20174;-78
2021/04/26 06:02:27;;;;;;;4.68;0.85;;;;;;;6.01;56.51;101390.03;5124261;28;20051;-78
2021/04/26 06:04:57;;;;;;;4.15;1.05;;;;;;;5.79;57.66;101393.56;5120879;28;20485;-78
2021/04/26 06:07:27;;;;;;;2.65;1.00;;;;;;;5.79;57.19;101389.25;5121110;28;20166;-78
2021/04/26 06:09:58;;;;;;;5.30;1.30;;;;;;;6.11;56.27;101391.72;5130924;28;20030;-78
2021/04/26 06:12:28;;;;;;;3.35;1.20;;;;;;;5.63;58.04;101391.84;5127066;28;20027;-78
2021/04/26 06:14:58;;;;;;;2.65;0.80;;;;;;;5.46;58.66;101381.53;5123081;28;20666;-79
2021/04/26 06:17:28;;;;;;;3.17;0.93;;;;;;;5.78;58.30;101376.25;5126508;28;20051;-79
2021/04/26 06:19:59;;;;;;;6.82;1.25;;;;;;;6.07;55.86;101375.28;5115493;29;20052;-79
2021/04/26 06:22:29;;;;;;;5.70;1.00;;;;;;;9.03;51.68;101367.81;5111827;28;20027;-79
2021/04/26 06:24:59;;;;;;;5.50;1.20;;;;;;;11.50;48.10;101361.47;5131122;28;20081;-79
2021/04/26 06:27:30;;;;;;;5.00;0.90;;;;;;;14.10;42.92;101348.63;5127539;28;20054;-80
2021/04/26 06:30:00;;;;;;;1.88;0.90;;;;;;;15.16;42.13;101342.53;5120721;28;20034;-80
2021/04/26 06:32:31;;;;;;;3.15;0.95;;;;;;;14.62;41.51;101348.34;5112239;28;20111;-80
2021/04/26 06:35:01;;;;;;;2.60;0.90;;;;;;;16.92;37.69;101329.97;5099239;28;20027;-81
2021/04/26 06:37:31;;;;;;;1.80;0.80;;;;;;;17.37;38.06;101333.88;5116127;28;20130;-81
2021/04/26 06:40:02;;;;;;;2.63;0.90;;;;;;;14.73;42.24;101346.16;5118124;28;20032;-81
2021/04/26 06:42:33;;;;;;;3.08;0.80;;;;;;;15.76;40.71;101339.06;5118685;28;20378;-81
2021/04/26 06:45:04;;;;;;;1.98;0.80;;;;;;;15.35;42.79;101338.25;5116429;29;20122;-81
2021/04/26 06:47:35;;;;;;;2.58;0.70;;;;;;;16.77;39.57;101343.97;5124592;28;20121;-81
2021/04/26 06:50:06;;;;;;;1.25;0.80;;;;;;;18.35;37.65;101332.06;5106965;29;20116;-81
2021/04/26 06:52:36;;;;;;;2.90;0.80;;;;;;;19.38;37.38;101331.34;5120249;28;20035;-81
2021/04/26 06:55:07;;;;;;;4.30;0.90;;;;;;;18.08;37.61;101335.34;5135312;28;20033;-80
2021/04/26 06:57:39;;;;;;;2.67;0.70;;;;;;;17.83;39.76;101340.25;5123236;28;20275;-80
2021/04/26 07:00:10;;;;;;;3.55;0.80;;;;;;;18.43;36.56;101344.88;5117155;29;20058;-80
2021/04/26 07:02:41;;;;;;;3.30;0.85;;;;;;;17.87;38.55;101341.78;5115293;28;20106;-80
2021/04/26 07:05:11;;;;;;;2.22;0.65;;;;;;;15.65;41.98;101342.19;5121379;28;20144;-80
2021/04/26 07:07:42;;;;;;;2.67;0.70;;;;;;;16.55;39.45;101335.34;5119936;28;20031;-80
2021/04/26 07:10:13;;;;;;;3.40;0.60;;;;;;;16.63;39.72;101346.41;5112860;28;20059;-80
2021/04/26 07:12:43;;;;;;;1.35;0.47;;;;;;;14.49;39.11;101350.63;5116787;28;20023;-79
2021/04/26 07:15:14;;;;;;;1.75;0.57;;;;;;;13.66;39.92;101347.63;5118781;28;20112;-79
2021/04/26 07:17:45;;;;;;;1.30;0.50;;;;;;;14.32;38.82;101349.53;5114375;28;20035;-79
2021/04/26 07:20:15;;;;;;;3.30;0.75;;;;;;;13.10;39.28;101346.06;5114104;29;20095;-79
2021/04/26 07:22:46;;;;;;;2.75;0.60;;;;;;;13.45;40.11;101344.88;5114414;29;20588;-79
2021/04/26 07:25:17;;;;;;;2.00;0.60;;;;;;;12.84;39.84;101345.19;5132558;28;20030;-78
2021/04/26 07:27:47;;;;;;;1.65;0.60;;;;;;;12.53;41.02;101344.47;5122238;28;20556;-78
2021/04/26 07:30:17;;;;;;;3.33;0.50;;;;;;;12.88;40.48;101333.72;5123871;28;20556;-78
2021/04/26 07:32:48;;;;;;;1.35;0.50;;;;;;;12.80;41.37;101340.13;5113736;29;20028;-78
2021/04/26 07:35:19;;;;;;;3.45;0.60;;;;;;;11.55;42.84;101345.59;5120504;28;20030;-78
2021/04/26 07:37:49;;;;;;;2.22;0.60;;;;;;;13.48;40.28;101336.88;5116518;28;20445;-78
2021/04/26 07:40:19;;;;;;;1.15;0.40;;;;;;;12.69;40.90;101335.22;5115982;28;20113;-78
2021/04/26 07:42:50;;;;;;;1.88;0.60;;;;;;;12.17;41.89;101340.34;5118602;28;20023;-79
2021/04/26 07:45:20;;;;;;;2.28;0.60;;;;;;;12.20;40.66;101327.16;5111386;28;20031;-78
2021/04/26 07:47:54;;;;;;;3.33;0.50;;;;;;;13.76;39.10;101329.75;5127266;28;20031;-78
2021/04/26 07:50:25;;;;;;;3.63;0.57;;;;;;;13.75;40.48;101333.28;5112412;28;20438;-78
2021/04/26 07:52:55;;;;;;;3.83;0.70;;;;;;;13.76;39.78;101327.97;5115844;28;20424;-78
2021/04/26 07:55:25;;;;;;;2.60;0.68;;;;;;;13.40;40.82;101329.28;5132724;28;20481;-78
2021/04/26 07:57:56;;;;;;;1.80;0.50;;;;;;;13.40;41.37;101331.06;5117603;28;20037;-78
2021/04/26 08:00:26;;;;;;;2.53;0.50;;;;;;;13.13;41.54;101329.38;5114175;28;20043;-78
2021/04/26 08:02:57;;;;;;;3.67;0.70;;;;;;;11.77;42.86;101331.91;5127626;28;20283;-78
2021/04/26 08:05:28;;;;;;;2.70;0.70;;;;;;;12.60;42.23;101332.03;5113187;29;20028;-78
2021/04/26 08:07:58;;;;;;;4.75;0.63;;;;;;;14.30;41.75;101325.06;5115141;29;20417;-78
2021/04/26 08:10:29;;;;;;;2.30;0.60;;;;;;;14.37;39.61;101321.28;5113266;29;20027;-79
2021/04/26 08:12:59;;;;;;;5.03;0.57;;;;;;;14.98;38.99;101310.88;5104001;28;20267;-78
2021/04/26 08:15:29;;;;;;;3.05;0.60;;;;;;;14.82;38.91;101308.94;5119198;28;20704;-79
2021/04/26 08:18:00;;;;;;;1.33;0.60;;;;;;;15.58;38.36;101303.88;5113796;29;20086;-79
2021/04/26 08:20:30;;;;;;;3.78;0.70;;;;;;;15.68;38.64;101305.16;5121927;28;20077;-79
2021/04/26 08:23:02;;;;;;;2.97;0.70;;;;;;;18.81;37.61;101292.34;5121415;28;20054;-79
2021/04/26 08:25:32;;;;;;;2.17;0.50;;;;;;;18.39;34.75;101293.94;5133378;28;20031;-79
2021/04/26 08:28:03;;;;;;;2.70;0.90;;;;;;;18.85;33.44;101293.84;5116836;28;20038;-79
2021/04/26 08:30:33;;;;;;;1.75;0.77;;;;;;;18.71;35.97;101294.75;5119028;28;20042;-79
2021/04/26 08:33:04;;;;;;;2.78;0.57;;;;;;;16.39;36.97;101310.63;5112893;28;20334;-79
2021/04/26 08:35:34;;;;;;;2.15;0.80;;;;;;;14.94;37.92;101312.78;5125113;28;20065;-79
2021/04/26 08:38:04;;;;;;;2.05;0.70;;;;;;;15.28;37.67;101313.06;5111933;28;20176;-79
2021/04/26 08:40:38;;;;;;;2.35;0.80;;;;;;;19.43;35.10;101292.13;5124059;28;20061;-79
2021/04/26 08:43:08;;;;;;;1.98;0.70;;;;;;;18.85;34.67;101296.50;5112829;28;20110;-79
2021/04/26 08:45:38;;;;;;;4.47;0.65;;;;;;;18.83;33.38;101292.22;5110940;29;20106;-79
2021/04/26 08:48:09;;;;;;;3.47;1.03;;;;;;;18.10;35.28;101297.28;5113272;28;20394;-79
2021/04/26 08:50:40;;;;;;;1.77;0.70;;;;;;;21.48;34.54;101277.75;5106880;28;20377;-79
2021/04/26 08:53:10;;;;;;;2.25;0.80;;;;;;;22.13;32.99;101284.63;5120322;28;20041;-79
2021/04/26 08:55:41;;;;;;;4.05;0.85;;;;;;;18.97;33.24;101293.13;5111445;28;20023;-78
2021/04/26 08:58:11;;;;;;;2.42;0.90;;;;;;;20.74;33.39;101279.28;5116912;28;20036;-79
2021/04/26 09:00:41;;;;;;;2.05;0.65;;;;;;;17.61;36.36;101289.41;5114376;29;20031;-79
2021/04/26 09:03:12;;;;;;;3.13;0.60;;;;;;;19.15;34.40;101281.47;5113039;28;20039;-80
2021/04/26 09:05:46;;;;;;;3.60;0.90;;;;;;;19.58;32.73;101272.66;5135044;28;20082;-80
2021/04/26 09:08:23;;;;;;;1.80;0.80;;;;;;;18.35;34.75;101270.34;5132010;28;20034;-81
2021/04/26 09:11:00;;;;;;;2.78;0.80;;;;;;;17.66;36.96;101279.47;5125927;29;20031;-80
2021/04/26 09:13:36;;;;;;;3.28;0.80;;;;;;;15.84;37.08;101285.06;5128776;28;20027;-80
2021/04/26 09:16:06;;;;;;;1.58;0.80;;;;;;;17.41;35.80;101279.91;5114194;28;20041;-78
2021/04/26 09:18:45;;;;;;;1.65;0.70;;;;;;;17.64;38.45;101276.06;5122849;28;20038;-79
2021/04/26 09:21:20;;;;;;;4.15;1.00;;;;;;;16.50;38.74;101276.66;5119545;28;20545;-79
2021/04/26 09:24:10;;;;;;;3.28;0.93;;;;;;;14.67;40.67;101278.84;5121127;28;20493;-78
2021/04/26 09:26:42;;;;;;;1.95;0.82;;;;;;;14.37;40.69;101282.69;5126329;28;20634;-78
2021/04/26 09:29:16;;;;;;;2.42;0.90;;;;;;;13.87;40.44;101282.91;5113234;29;20505;-78
2021/04/26 09:32:14;;;;;;;4.22;0.85;;;;;;;13.88;39.81;101258.34;5110240;29;20082;-78
2021/04/26 09:34:51;;;;;;;2.25;1.00;;;;;;;13.93;39.59;101262.50;5120402;28;20085;-78
2021/04/26 09:37:29;;;;;;;2.83;1.00;;;;;;;14.70;40.64;101256.78;5115705;28;20039;-78
2021/04/26 09:40:03;;;;;;;3.03;1.02;;;;;;;14.18;39.47;101268.56;5112401;28;20062;-78
2021/04/26 09:42:46;;;;;;;1.67;0.90;;;;;;;14.48;40.46;101261.22;5123033;28;20027;-78
2021/04/26 09:45:37;;;;;;;2.30;0.80;;;;;;;14.81;42.17;101260.72;5116735;28;20042;-78
2021/04/26 09:48:21;;;;;;;3.10;1.10;;;;;;;15.66;39.57;101256.06;5109826;28;20039;-77
2021/04/26 09:51:06;;;;;;;3.03;1.00;;;;;;;15.48;39.25;101252.47;5111259;29;20079;-77
2021/04/26 09:53:39;;;;;;;3.13;1.00;;;;;;;14.99;37.95;101254.66;5117023;28;20030;-77
2021/04/26 09:56:12;;;;;;;3.55;1.08;;;;;;;14.30;38.59;101256.72;5127285;28;20037;-77
2021/04/26 09:58:46;;;;;;;4.10;1.00;;;;;;;14.52;40.90;101247.03;5110537;29;20442;-77
2021/04/26 10:01:16;;;;;;;2.80;1.20;;;;;;;13.48;39.45;101255.47;5110830;28;20093;-77
2021/04/26 10:03:48;;;;;;;6.00;1.40;;;;;;;13.21;38.94;101246.84;5110228;29;20023;-77
2021/04/26 10:06:20;;;;;;;4.60;1.23;;;;;;;13.40;39.82;101239.16;5120712;28;20027;-78
2021/04/26 10:08:53;;;;;;;6.20;2.42;;;;;;;12.83;41.79;101237.69;5133391;28;20036;-77
2021/04/26 10:11:26;;;;;;;3.03;1.20;;;;;;;12.57;39.93;101238.56;5121098;28;20042;-77
2021/04/26 10:14:05;;;;;;;3.90;1.23;;;;;;;12.03;40.21;101237.72;5120960;28;20027;-78
2021/04/26 10:16:56;;;;;;;3.00;1.23;;;;;;;11.86;42.75;101244.34;5111820;28;20042;-77
2021/04/26 10:19:29;;;;;;;6.63;2.60;;;;;;;12.65;41.34;101230.44;5112907;29;20042;-78
2021/04/26 10:22:00;;;;;;;7.60;3.08;;;;;;;13.25;41.02;101226.59;5113165;29;20542;-78
2021/04/26 10:24:33;;;;;;;5.47;1.55;;;;;;;12.83;39.77;101220.19;5115075;28;20115;-78
2021/04/26 10:27:07;;;;;;;1.30;0.93;;;;;;;12.61;39.96;101215.72;5115549;28;20505;-78
2021/04/26 10:29:39;;;;;;;3.60;1.27;;;;;;;12.81;41.06;101211.50;5124607;28;20031;-79
2021/04/26 10:32:12;;;;;;;2.97;1.30;;;;;;;13.36;42.51;101206.03;5113160;29;20024;-78
2021/04/26 10:34:42;;;;;;;3.80;1.25;;;;;;;13.71;41.48;101202.97;5118524;28;20031;-78
2021/04/26 10:37:16;;;;;;;2.40;1.20;;;;;;;13.40;38.33;101192.75;5116317;28;20039;-78
2021/04/26 10:39:58;;;;;;;2.40;1.08;;;;;;;13.16;41.45;101195.41;5119740;28;20114;-79
2021/04/26 10:42:43;;;;;;;5.25;1.38;;;;;;;13.68;41.85;101192.56;5112375;28;20569;-79
2021/04/26 10:45:13;;;;;;;3.78;1.50;;;;;;;13.48;40.31;101190.69;5123646;28;20553;-78
2021/04/26 10:47:44;;;;;;;1.87;1.00;;;;;;;12.39;41.63;101188.50;5113353;29;20111;-78
2021/04/26 10:50:15;;;;;;;3.55;1.30;;;;;;;12.48;41.25;101181.19;5114611;29;20334;-79
2021/04/26 10:52:55;;;;;;;2.75;1.13;;;;;;;12.62;42.07;101185.97;5110759;29;20461;-79
2021/04/26 10:55:25;;;;;;;3.33;1.20;;;;;;;12.05;43.47;101175.66;5116990;28;20027;-80
2021/04/26 10:58:01;;;;;;;5.87;1.40;;;;;;;11.71;43.75;101177.59;5117040;28;20043;-79
2021/04/26 11:00:35;;;;;;;3.88;1.10;;;;;;;11.61;43.58;101178.78;5112312;29;20275;-78
2021/04/26 11:03:05;;;;;;;3.05;1.30;;;;;;;11.30;43.69;101183.16;5110188;29;20463;-79
2021/04/26 11:05:42;;;;;;;4.65;1.05;;;;;;;11.44;44.26;101170.53;5113484;28;20027;-79
2021/04/26 11:13:53;;;;;;;1.90;1.00;;;;;;;11.40;43.93;101178.50;5121014;28;20113;-80
2021/04/26 11:16:32;;;;;;;2.42;1.00;;;;;;;11.52;43.43;101170.31;5110440;28;20042;-79
2021/04/26 11:19:08;;;;;;;2.75;1.10;;;;;;;11.86;44.15;101171.03;5111235;29;20035;-79
2021/04/26 11:21:41;;;;;;;4.97;1.35;;;;;;;12.07;43.83;101160.72;5111503;29;20031;-79
2021/04/26 11:24:16;;;;;;;4.47;1.23;;;;;;;12.32;44.15;101161.63;5110019;28;20031;-79
2021/04/26 11:27:08;;;;;;;2.90;1.08;;;;;;;12.84;44.29;101144.97;5124218;28;20027;-79
2021/04/26 11:29:41;;;;;;;3.10;1.25;;;;;;;13.32;44.60;101141.44;5116451;28;20106;-79
2021/04/26 11:32:13;;;;;;;3.00;1.27;;;;;;;13.69;44.01;101144.34;5116610;28;20032;-79
2021/04/26 11:34:50;;;;;;;2.03;1.08;;;;;;;13.14;40.99;101137.75;5122051;28;20051;-79
2021/04/26 11:37:22;;;;;;;2.35;1.23;;;;;;;13.42;44.25;101142.81;5133843;28;20045;-80
2021/04/26 11:39:54;;;;;;;4.35;1.17;;;;;;;13.16;43.11;101135.03;5122691;28;20687;-79
2021/04/26 11:42:30;;;;;;;4.03;1.15;;;;;;;12.40;40.18;101138.66;5119885;28;20027;-79
2021/04/26 11:45:06;;;;;;;4.47;1.40;;;;;;;12.67;41.17;101129.81;5117405;28;20725;-79
2021/04/26 11:47:37;;;;;;;4.18;1.30;;;;;;;12.78;42.26;101121.59;5122180;28;20035;-80
2021/04/26 11:50:10;;;;;;;2.80;1.15;;;;;;;13.63;44.92;101120.97;5100527;29;20031;-81
2021/04/26 11:52:40;;;;;;;5.50;1.40;;;;;;;13.50;42.60;101112.72;5121568;28;20023;-79
2021/04/26 11:55:16;;;;;;;3.88;1.20;;;;;;;14.01;41.49;101115.03;5124203;28;20313;-80
2021/04/26 11:57:54;;;;;;;3.88;1.30;;;;;;;13.95;42.99;101108.22;5123433;28;20042;-80
2021/04/26 12:00:27;;;;;;;5.60;2.67;;;;;;;13.98;40.72;101099.38;5121344;29;20214;-80